sensor_id;sensor_type;location;lat;lon;timestamp;temperature;humidity
13440;DHT22;6792;57.698;11.946;2022-08-06T00:01:24;22.70;44.00
13440;DHT22;6792;57.698;11.946;2022-08-06T00:03:53;22.70;44.00
13440;DHT22;6792;57.698;11.946;2022-08-06T00:06:26;22.60;43.90
13440;DHT22;6792;57.698;11.946;2022-08-06T00:09:02;22.70;43.40
13440;DHT22;6792;57.698;11.946;2022-08-06T00:11:36;22.60;43.30
13440;DHT22;6792;57.698;11.946;2022-08-06T00:14:09;22.70;43.90
13440;DHT22;6792;57.698;11.946;2022-08-06T00:16:38;22.60;43.50
13440;DHT22;6792;57.698;11.946;2022-08-06T00:19:07;22.70;43.80
13440;DHT22;6792;57.698;11.946;2022-08-06T00:21:38;22.70;43.90
13440;DHT22;6792;57.698;11.946;2022-08-06T00:24:09;22.70;43.30
13440;DHT22;6792;57.698;11.946;2022-08-06T00:26:40;22.70;43.80
13440;DHT22;6792;57.698;11.946;2022-08-06T00:29:11;22.70;43.20
13440;DHT22;6792;57.698;11.946;2022-08-06T00:31:40;22.70;43.70
13440;DHT22;6792;57.698;11.946;2022-08-06T00:34:09;22.70;43.70
13440;DHT22;6792;57.698;11.946;2022-08-06T00:36:38;22.70;43.70
13440;DHT22;6792;57.698;11.946;2022-08-06T00:39:12;22.60;43.60
13440;DHT22;6792;57.698;11.946;2022-08-06T00:41:45;22.70;43.70
13440;DHT22;6792;57.698;11.946;2022-08-06T00:44:20;22.70;43.80
13440;DHT22;6792;57.698;11.946;2022-08-06T00:46:49;22.70;43.80
13440;DHT22;6792;57.698;11.946;2022-08-06T00:49:19;22.70;43.80
13440;DHT22;6792;57.698;11.946;2022-08-06T00:51:48;22.70;43.80
13440;DHT22;6792;57.698;11.946;2022-08-06T00:54:21;22.70;43.80
13440;DHT22;6792;57.698;11.946;2022-08-06T00:56:53;22.70;43.80
13440;DHT22;6792;57.698;11.946;2022-08-06T00:59:22;22.70;43.70
13440;DHT22;6792;57.698;11.946;2022-08-06T01:01:54;22.70;43.10
13440;DHT22;6792;57.698;11.946;2022-08-06T01:04:24;22.70;43.70
13440;DHT22;6792;57.698;11.946;2022-08-06T01:07:03;22.70;43.10
13440;DHT22;6792;57.698;11.946;2022-08-06T01:09:34;22.70;43.70
13440;DHT22;6792;57.698;11.946;2022-08-06T01:12:08;22.70;44.00
13440;DHT22;6792;57.698;11.946;2022-08-06T01:14:35;22.70;43.70
13440;DHT22;6792;57.698;11.946;2022-08-06T01:17:09;22.70;43.70
13440;DHT22;6792;57.698;11.946;2022-08-06T01:19:48;22.60;43.70
13440;DHT22;6792;57.698;11.946;2022-08-06T01:22:40;22.60;43.20
13440;DHT22;6792;57.698;11.946;2022-08-06T01:25:30;22.60;43.20
13440;DHT22;6792;57.698;11.946;2022-08-06T01:30:45;22.40;43.30
13440;DHT22;6792;57.698;11.946;2022-08-06T01:33:16;22.40;43.90
13440;DHT22;6792;57.698;11.946;2022-08-06T01:35:49;22.40;44.10
13440;DHT22;6792;57.698;11.946;2022-08-06T01:38:22;22.50;44.00
13440;DHT22;6792;57.698;11.946;2022-08-06T01:40:52;22.50;44.00
13440;DHT22;6792;57.698;11.946;2022-08-06T01:43:24;22.50;44.00
13440;DHT22;6792;57.698;11.946;2022-08-06T01:45:57;22.50;44.00
13440;DHT22;6792;57.698;11.946;2022-08-06T01:48:27;22.40;44.00
13440;DHT22;6792;57.698;11.946;2022-08-06T01:51:05;22.40;44.00
13440;DHT22;6792;57.698;11.946;2022-08-06T01:53:39;22.40;44.10
13440;DHT22;6792;57.698;11.946;2022-08-06T01:56:10;22.40;44.00
13440;DHT22;6792;57.698;11.946;2022-08-06T01:58:45;22.40;43.50
13440;DHT22;6792;57.698;11.946;2022-08-06T02:01:15;22.40;44.00
13440;DHT22;6792;57.698;11.946;2022-08-06T02:03:49;22.40;44.00
13440;DHT22;6792;57.698;11.946;2022-08-06T02:06:27;22.40;44.00
13440;DHT22;6792;57.698;11.946;2022-08-06T02:08:59;22.30;44.00
13440;DHT22;6792;57.698;11.946;2022-08-06T02:11:29;22.30;44.10
13440;DHT22;6792;57.698;11.946;2022-08-06T02:14:01;22.30;44.10
13440;DHT22;6792;57.698;11.946;2022-08-06T02:19:27;22.20;43.50
13440;DHT22;6792;57.698;11.946;2022-08-06T02:21:59;22.20;44.10
13440;DHT22;6792;57.698;11.946;2022-08-06T02:24:31;22.20;43.60
13440;DHT22;6792;57.698;11.946;2022-08-06T02:27:05;22.20;44.20
13440;DHT22;6792;57.698;11.946;2022-08-06T02:29:41;22.20;43.70
13440;DHT22;6792;57.698;11.946;2022-08-06T02:32:19;22.20;43.70
13440;DHT22;6792;57.698;11.946;2022-08-06T02:34:51;22.10;43.60
13440;DHT22;6792;57.698;11.946;2022-08-06T02:37:26;22.20;44.30
13440;DHT22;6792;57.698;11.946;2022-08-06T02:39:59;22.10;43.70
13440;DHT22;6792;57.698;11.946;2022-08-06T02:42:37;22.10;44.30
13440;DHT22;6792;57.698;11.946;2022-08-06T02:45:12;22.10;43.70
13440;DHT22;6792;57.698;11.946;2022-08-06T02:50:48;21.30;43.30
13440;DHT22;6792;57.698;11.946;2022-08-06T02:53:23;22.10;44.30
13440;DHT22;6792;57.698;11.946;2022-08-06T02:55:59;23.20;44.30
13440;DHT22;6792;57.698;11.946;2022-08-06T02:58:35;22.00;43.80
13440;DHT22;6792;57.698;11.946;2022-08-06T03:01:08;22.00;43.80
13440;DHT22;6792;57.698;11.946;2022-08-06T03:03:41;22.00;44.40
13440;DHT22;6792;57.698;11.946;2022-08-06T03:06:14;22.00;44.30
13440;DHT22;6792;57.698;11.946;2022-08-06T03:08:49;21.90;43.70
13440;DHT22;6792;57.698;11.946;2022-08-06T03:11:19;22.00;44.30
13440;DHT22;6792;57.698;11.946;2022-08-06T03:13:52;22.00;44.30
13440;DHT22;6792;57.698;11.946;2022-08-06T03:16:25;22.00;43.70
13440;DHT22;6792;57.698;11.946;2022-08-06T03:18:56;21.90;43.70
13440;DHT22;6792;57.698;11.946;2022-08-06T03:21:27;21.90;43.70
13440;DHT22;6792;57.698;11.946;2022-08-06T03:23:59;21.90;44.30
13440;DHT22;6792;57.698;11.946;2022-08-06T03:26:30;21.90;43.70
13440;DHT22;6792;57.698;11.946;2022-08-06T03:29:01;21.80;43.70
13440;DHT22;6792;57.698;11.946;2022-08-06T03:31:33;21.90;44.40
13440;DHT22;6792;57.698;11.946;2022-08-06T03:34:04;21.80;43.80
13440;DHT22;6792;57.698;11.946;2022-08-06T03:36:35;21.80;44.40
13440;DHT22;6792;57.698;11.946;2022-08-06T03:39:32;21.80;44.30
13440;DHT22;6792;57.698;11.946;2022-08-06T03:42:05;21.80;44.30
13440;DHT22;6792;57.698;11.946;2022-08-06T03:44:36;21.70;44.30
13440;DHT22;6792;57.698;11.946;2022-08-06T03:47:09;21.70;44.30
13440;DHT22;6792;57.698;11.946;2022-08-06T03:49:53;21.70;43.70
13440;DHT22;6792;57.698;11.946;2022-08-06T03:52:32;21.70;44.30
13440;DHT22;6792;57.698;11.946;2022-08-06T03:55:05;21.60;43.70
13440;DHT22;6792;57.698;11.946;2022-08-06T03:57:41;21.60;43.70
13440;DHT22;6792;57.698;11.946;2022-08-06T04:00:19;21.60;43.60
13440;DHT22;6792;57.698;11.946;2022-08-06T04:02:51;21.60;44.20
13440;DHT22;6792;57.698;11.946;2022-08-06T04:05:24;21.50;43.60
13440;DHT22;6792;57.698;11.946;2022-08-06T04:07:59;21.60;44.20
13440;DHT22;6792;57.698;11.946;2022-08-06T04:10:37;21.60;44.10
13440;DHT22;6792;57.698;11.946;2022-08-06T04:13:14;21.50;43.50
13440;DHT22;6792;57.698;11.946;2022-08-06T04:15:41;21.50;44.10
13440;DHT22;6792;57.698;11.946;2022-08-06T04:18:14;21.50;44.10
13440;DHT22;6792;57.698;11.946;2022-08-06T04:20:46;21.50;44.00
13440;DHT22;6792;57.698;11.946;2022-08-06T04:23:15;21.50;44.00
13440;DHT22;6792;57.698;11.946;2022-08-06T04:25:49;21.50;44.30
13440;DHT22;6792;57.698;11.946;2022-08-06T04:28:24;21.50;43.10
13440;DHT22;6792;57.698;11.946;2022-08-06T04:30:54;21.40;43.10
13440;DHT22;6792;57.698;11.946;2022-08-06T04:33:27;21.40;43.60
13440;DHT22;6792;57.698;11.946;2022-08-06T04:35:59;21.40;43.60
13440;DHT22;6792;57.698;11.946;2022-08-06T04:38:30;21.40;43.60
13440;DHT22;6792;57.698;11.946;2022-08-06T04:41:04;21.40;43.60
13440;DHT22;6792;57.698;11.946;2022-08-06T04:43:34;21.40;43.60
13440;DHT22;6792;57.698;11.946;2022-08-06T04:46:03;21.40;43.50
13440;DHT22;6792;57.698;11.946;2022-08-06T04:48:37;21.30;42.90
13440;DHT22;6792;57.698;11.946;2022-08-06T04:51:07;21.40;42.90
13440;DHT22;6792;57.698;11.946;2022-08-06T04:53:42;21.40;43.40
13440;DHT22;6792;57.698;11.946;2022-08-06T04:56:11;21.40;43.40
13440;DHT22;6792;57.698;11.946;2022-08-06T04:58:41;21.40;43.30
13440;DHT22;6792;57.698;11.946;2022-08-06T05:01:11;21.40;42.70
13440;DHT22;6792;57.698;11.946;2022-08-06T05:03:40;21.50;43.40
13440;DHT22;6792;57.698;11.946;2022-08-06T05:06:13;21.50;43.30
13440;DHT22;6792;57.698;11.946;2022-08-06T05:08:51;21.50;42.70
13440;DHT22;6792;57.698;11.946;2022-08-06T05:11:23;21.50;43.20
13440;DHT22;6792;57.698;11.946;2022-08-06T05:13:57;21.50;42.70
13440;DHT22;6792;57.698;11.946;2022-08-06T05:16:27;21.40;42.70
13440;DHT22;6792;57.698;11.946;2022-08-06T05:19:01;21.40;43.40
13440;DHT22;6792;57.698;11.946;2022-08-06T05:21:35;21.40;43.30
13440;DHT22;6792;57.698;11.946;2022-08-06T05:24:10;21.40;43.20
13440;DHT22;6792;57.698;11.946;2022-08-06T05:26:40;21.40;43.20
13440;DHT22;6792;57.698;11.946;2022-08-06T05:29:12;21.40;43.20
13440;DHT22;6792;57.698;11.946;2022-08-06T05:31:43;21.50;43.10
13440;DHT22;6792;57.698;11.946;2022-08-06T05:34:17;21.50;43.70
13440;DHT22;6792;57.698;11.946;2022-08-06T05:36:47;21.50;42.50
13440;DHT22;6792;57.698;11.946;2022-08-06T05:39:20;21.50;43.00
13440;DHT22;6792;57.698;11.946;2022-08-06T05:41:51;21.60;42.40
13440;DHT22;6792;57.698;11.946;2022-08-06T05:44:21;21.60;42.90
13440;DHT22;6792;57.698;11.946;2022-08-06T05:46:54;21.60;42.20
13440;DHT22;6792;57.698;11.946;2022-08-06T05:49:26;21.60;42.80
13440;DHT22;6792;57.698;11.946;2022-08-06T05:52:02;21.70;42.80
13440;DHT22;6792;57.698;11.946;2022-08-06T05:54:33;21.60;42.00
13440;DHT22;6792;57.698;11.946;2022-08-06T05:57:07;21.60;42.10
13440;DHT22;6792;57.698;11.946;2022-08-06T05:59:39;21.60;42.60
13440;DHT22;6792;57.698;11.946;2022-08-06T06:02:10;21.60;42.10
13440;DHT22;6792;57.698;11.946;2022-08-06T06:04:41;21.70;42.80
13440;DHT22;6792;57.698;11.946;2022-08-06T06:07:11;21.70;42.70
13440;DHT22;6792;57.698;11.946;2022-08-06T06:09:45;21.70;42.70
13440;DHT22;6792;57.698;11.946;2022-08-06T06:15:02;21.80;42.10
13440;DHT22;6792;57.698;11.946;2022-08-06T06:17:41;21.80;42.00
13440;DHT22;6792;57.698;11.946;2022-08-06T06:20:15;21.80;42.50
13440;DHT22;6792;57.698;11.946;2022-08-06T06:22:51;21.80;42.40
13440;DHT22;6792;57.698;11.946;2022-08-06T06:25:24;21.80;41.90
13440;DHT22;6792;57.698;11.946;2022-08-06T06:27:58;21.80;41.80
13440;DHT22;6792;57.698;11.946;2022-08-06T06:30:38;21.80;41.90
13440;DHT22;6792;57.698;11.946;2022-08-06T06:33:14;21.90;42.50
13440;DHT22;6792;57.698;11.946;2022-08-06T06:35:50;21.90;41.90
13440;DHT22;6792;57.698;11.946;2022-08-06T06:38:31;21.90;42.40
13440;DHT22;6792;57.698;11.946;2022-08-06T06:41:05;21.90;41.70
13440;DHT22;6792;57.698;11.946;2022-08-06T06:46:24;21.90;41.60
13440;DHT22;6792;57.698;11.946;2022-08-06T06:49:00;21.90;42.10
13440;DHT22;6792;57.698;11.946;2022-08-06T06:51:33;22.00;42.10
13440;DHT22;6792;57.698;11.946;2022-08-06T06:54:03;21.90;41.40
13440;DHT22;6792;57.698;11.946;2022-08-06T06:56:37;21.90;42.00
13440;DHT22;6792;57.698;11.946;2022-08-06T06:59:10;21.90;42.00
13440;DHT22;6792;57.698;11.946;2022-08-06T07:01:40;22.00;42.10
13440;DHT22;6792;57.698;11.946;2022-08-06T07:04:17;22.10;42.10
13440;DHT22;6792;57.698;11.946;2022-08-06T07:06:49;22.10;41.50
13440;DHT22;6792;57.698;11.946;2022-08-06T07:09:23;22.20;42.10
13440;DHT22;6792;57.698;11.946;2022-08-06T07:11:55;22.30;42.10
13440;DHT22;6792;57.698;11.946;2022-08-06T07:14:26;22.40;42.10
13440;DHT22;6792;57.698;11.946;2022-08-06T07:16:57;21.70;41.10
13440;DHT22;6792;57.698;11.946;2022-08-06T07:19:29;22.50;41.20
13440;DHT22;6792;57.698;11.946;2022-08-06T07:22:00;22.60;41.20
13440;DHT22;6792;57.698;11.946;2022-08-06T07:24:31;22.60;41.70
13440;DHT22;6792;57.698;11.946;2022-08-06T07:27:05;22.60;41.60
13440;DHT22;6792;57.698;11.946;2022-08-06T07:29:36;22.60;41.10
13440;DHT22;6792;57.698;11.946;2022-08-06T07:32:08;22.60;41.70
13440;DHT22;6792;57.698;11.946;2022-08-06T07:34:41;22.70;41.70
13440;DHT22;6792;57.698;11.946;2022-08-06T07:37:12;22.70;41.30
13440;DHT22;6792;57.698;11.946;2022-08-06T07:39:46;22.80;42.00
13440;DHT22;6792;57.698;11.946;2022-08-06T07:42:21;22.80;41.90
13440;DHT22;6792;57.698;11.946;2022-08-06T07:44:59;22.80;41.60
13440;DHT22;6792;57.698;11.946;2022-08-06T07:47:32;22.80;41.80
13440;DHT22;6792;57.698;11.946;2022-08-06T07:50:04;22.90;41.80
13440;DHT22;6792;57.698;11.946;2022-08-06T07:52:37;22.90;41.70
13440;DHT22;6792;57.698;11.946;2022-08-06T07:55:11;22.90;41.60
13440;DHT22;6792;57.698;11.946;2022-08-06T07:57:43;22.90;41.60
13440;DHT22;6792;57.698;11.946;2022-08-06T08:00:14;22.90;41.60
13440;DHT22;6792;57.698;11.946;2022-08-06T08:02:43;22.90;41.70
13440;DHT22;6792;57.698;11.946;2022-08-06T08:05:20;22.90;41.70
13440;DHT22;6792;57.698;11.946;2022-08-06T08:08:07;22.90;41.30
13440;DHT22;6792;57.698;11.946;2022-08-06T08:10:43;22.90;42.00
13440;DHT22;6792;57.698;11.946;2022-08-06T08:13:13;22.90;41.40
13440;DHT22;6792;57.698;11.946;2022-08-06T08:15:54;22.90;41.20
13440;DHT22;6792;57.698;11.946;2022-08-06T08:18:32;22.90;41.30
13440;DHT22;6792;57.698;11.946;2022-08-06T08:21:02;23.00;41.90
13440;DHT22;6792;57.698;11.946;2022-08-06T08:23:32;23.00;42.20
13440;DHT22;6792;57.698;11.946;2022-08-06T08:26:09;23.00;41.40
13440;DHT22;6792;57.698;11.946;2022-08-06T08:28:38;23.10;41.90
13440;DHT22;6792;57.698;11.946;2022-08-06T08:31:10;23.20;42.00
13440;DHT22;6792;57.698;11.946;2022-08-06T08:33:41;23.20;41.20
13440;DHT22;6792;57.698;11.946;2022-08-06T08:36:11;23.30;41.80
13440;DHT22;6792;57.698;11.946;2022-08-06T08:38:50;23.30;41.90
13440;DHT22;6792;57.698;11.946;2022-08-06T08:41:24;23.40;41.90
13440;DHT22;6792;57.698;11.946;2022-08-06T08:43:58;23.40;41.80
13440;DHT22;6792;57.698;11.946;2022-08-06T08:46:27;23.40;41.70
13440;DHT22;6792;57.698;11.946;2022-08-06T08:49:12;23.40;41.20
13440;DHT22;6792;57.698;11.946;2022-08-06T08:51:41;23.40;41.20
13440;DHT22;6792;57.698;11.946;2022-08-06T08:54:15;23.40;41.80
13440;DHT22;6792;57.698;11.946;2022-08-06T08:56:46;23.50;41.20
13440;DHT22;6792;57.698;11.946;2022-08-06T08:59:18;23.50;41.70
13440;DHT22;6792;57.698;11.946;2022-08-06T09:01:49;23.50;41.70
13440;DHT22;6792;57.698;11.946;2022-08-06T09:04:23;23.50;41.80
13440;DHT22;6792;57.698;11.946;2022-08-06T09:06:54;23.50;41.10
13440;DHT22;6792;57.698;11.946;2022-08-06T09:09:24;23.40;41.60
13440;DHT22;6792;57.698;11.946;2022-08-06T09:12:00;23.40;41.10
13440;DHT22;6792;57.698;11.946;2022-08-06T09:14:26;23.30;41.10
13440;DHT22;6792;57.698;11.946;2022-08-06T09:16:58;23.30;41.10
13440;DHT22;6792;57.698;11.946;2022-08-06T09:19:28;23.30;41.10
13440;DHT22;6792;57.698;11.946;2022-08-06T09:21:58;23.20;41.60
13440;DHT22;6792;57.698;11.946;2022-08-06T09:24:29;23.20;41.10
13440;DHT22;6792;57.698;11.946;2022-08-06T09:27:11;23.20;41.70
13440;DHT22;6792;57.698;11.946;2022-08-06T09:32:40;23.20;41.20
13440;DHT22;6792;57.698;11.946;2022-08-06T09:35:18;23.30;41.40
13440;DHT22;6792;57.698;11.946;2022-08-06T09:38:10;23.10;42.00
13440;DHT22;6792;57.698;11.946;2022-08-06T09:40:39;23.10;41.60
13440;DHT22;6792;57.698;11.946;2022-08-06T09:43:10;23.10;41.70
13440;DHT22;6792;57.698;11.946;2022-08-06T09:45:44;23.00;41.70
13440;DHT22;6792;57.698;11.946;2022-08-06T09:48:15;23.10;42.30
13440;DHT22;6792;57.698;11.946;2022-08-06T09:50:51;23.10;42.40
13440;DHT22;6792;57.698;11.946;2022-08-06T09:53:21;23.20;42.40
13440;DHT22;6792;57.698;11.946;2022-08-06T09:55:52;23.20;42.40
13440;DHT22;6792;57.698;11.946;2022-08-06T09:58:30;23.20;42.40
13440;DHT22;6792;57.698;11.946;2022-08-06T10:01:19;23.10;42.30
13440;DHT22;6792;57.698;11.946;2022-08-06T10:03:49;23.10;42.30
13440;DHT22;6792;57.698;11.946;2022-08-06T10:06:20;23.10;41.80
13440;DHT22;6792;57.698;11.946;2022-08-06T10:09:05;23.20;42.40
13440;DHT22;6792;57.698;11.946;2022-08-06T10:11:35;23.20;42.40
13440;DHT22;6792;57.698;11.946;2022-08-06T10:14:05;23.30;41.80
13440;DHT22;6792;57.698;11.946;2022-08-06T10:16:34;23.30;42.30
13440;DHT22;6792;57.698;11.946;2022-08-06T10:19:08;23.30;42.30
13440;DHT22;6792;57.698;11.946;2022-08-06T10:21:37;23.30;42.30
13440;DHT22;6792;57.698;11.946;2022-08-06T10:24:07;23.30;42.40
13440;DHT22;6792;57.698;11.946;2022-08-06T10:26:43;23.30;42.40
13440;DHT22;6792;57.698;11.946;2022-08-06T10:29:17;23.30;42.40
13440;DHT22;6792;57.698;11.946;2022-08-06T10:31:50;23.30;41.90
13440;DHT22;6792;57.698;11.946;2022-08-06T10:34:24;23.30;42.50
13440;DHT22;6792;57.698;11.946;2022-08-06T10:36:58;23.30;42.40
13440;DHT22;6792;57.698;11.946;2022-08-06T10:39:34;23.30;41.90
13440;DHT22;6792;57.698;11.946;2022-08-06T10:42:02;23.30;42.50
13440;DHT22;6792;57.698;11.946;2022-08-06T10:44:35;23.30;42.40
13440;DHT22;6792;57.698;11.946;2022-08-06T10:47:09;23.30;41.90
13440;DHT22;6792;57.698;11.946;2022-08-06T10:49:40;23.30;41.90
13440;DHT22;6792;57.698;11.946;2022-08-06T10:52:11;23.30;42.40
13440;DHT22;6792;57.698;11.946;2022-08-06T10:54:41;23.40;42.40
13440;DHT22;6792;57.698;11.946;2022-08-06T10:57:11;23.40;42.30
13440;DHT22;6792;57.698;11.946;2022-08-06T10:59:43;23.50;42.40
13440;DHT22;6792;57.698;11.946;2022-08-06T11:02:25;23.50;42.20
13440;DHT22;6792;57.698;11.946;2022-08-06T11:04:54;23.50;41.90
13440;DHT22;6792;57.698;11.946;2022-08-06T11:07:58;23.50;41.30
13440;DHT22;6792;57.698;11.946;2022-08-06T11:10:54;23.50;41.40
13440;DHT22;6792;57.698;11.946;2022-08-06T11:13:27;23.50;42.20
13440;DHT22;6792;57.698;11.946;2022-08-06T11:15:56;23.50;42.30
13440;DHT22;6792;57.698;11.946;2022-08-06T11:18:25;23.50;42.20
13440;DHT22;6792;57.698;11.946;2022-08-06T11:20:55;23.60;42.10
13440;DHT22;6792;57.698;11.946;2022-08-06T11:23:30;23.60;42.00
13440;DHT22;6792;57.698;11.946;2022-08-06T11:26:02;23.70;42.00
13440;DHT22;6792;57.698;11.946;2022-08-06T11:28:58;23.70;41.40
13440;DHT22;6792;57.698;11.946;2022-08-06T11:31:41;23.70;42.00
13440;DHT22;6792;57.698;11.946;2022-08-06T11:34:13;23.70;41.60
13440;DHT22;6792;57.698;11.946;2022-08-06T11:36:48;23.70;42.10
13440;DHT22;6792;57.698;11.946;2022-08-06T11:39:22;23.70;42.00
13440;DHT22;6792;57.698;11.946;2022-08-06T11:41:59;23.70;41.90
13440;DHT22;6792;57.698;11.946;2022-08-06T11:44:33;23.70;41.90
13440;DHT22;6792;57.698;11.946;2022-08-06T11:47:15;23.80;42.00
13440;DHT22;6792;57.698;11.946;2022-08-06T11:49:47;23.80;42.00
13440;DHT22;6792;57.698;11.946;2022-08-06T11:52:39;23.80;42.00
13440;DHT22;6792;57.698;11.946;2022-08-06T11:55:13;23.80;41.40
13440;DHT22;6792;57.698;11.946;2022-08-06T11:57:43;23.80;42.00
13440;DHT22;6792;57.698;11.946;2022-08-06T12:00:15;23.80;41.90
13440;DHT22;6792;57.698;11.946;2022-08-06T12:02:58;23.80;41.80
13440;DHT22;6792;57.698;11.946;2022-08-06T12:08:27;23.90;41.70
13440;DHT22;6792;57.698;11.946;2022-08-06T12:14:40;24.10;41.10
13440;DHT22;6792;57.698;11.946;2022-08-06T12:17:12;24.10;41.20
13440;DHT22;6792;57.698;11.946;2022-08-06T12:19:53;24.10;41.70
13440;DHT22;6792;57.698;11.946;2022-08-06T12:22:24;24.20;41.70
13440;DHT22;6792;57.698;11.946;2022-08-06T12:24:54;24.30;41.10
13440;DHT22;6792;57.698;11.946;2022-08-06T12:27:30;24.40;41.60
13440;DHT22;6792;57.698;11.946;2022-08-06T12:30:03;24.40;40.90
13440;DHT22;6792;57.698;11.946;2022-08-06T12:32:33;24.40;41.00
13440;DHT22;6792;57.698;11.946;2022-08-06T12:35:09;24.40;41.10
13440;DHT22;6792;57.698;11.946;2022-08-06T12:37:41;24.50;41.60
13440;DHT22;6792;57.698;11.946;2022-08-06T12:40:13;24.50;41.00
13440;DHT22;6792;57.698;11.946;2022-08-06T12:43:08;24.50;41.10
13440;DHT22;6792;57.698;11.946;2022-08-06T12:45:27;24.50;41.70
13440;DHT22;6792;57.698;11.946;2022-08-06T12:47:59;24.50;41.70
13440;DHT22;6792;57.698;11.946;2022-08-06T12:50:30;24.40;41.70
13440;DHT22;6792;57.698;11.946;2022-08-06T12:53:06;24.40;41.20
13440;DHT22;6792;57.698;11.946;2022-08-06T12:55:40;24.40;41.90
13440;DHT22;6792;57.698;11.946;2022-08-06T12:58:07;24.50;41.60
13440;DHT22;6792;57.698;11.946;2022-08-06T13:00:38;24.60;42.20
13440;DHT22;6792;57.698;11.946;2022-08-06T13:03:09;24.80;42.10
13440;DHT22;6792;57.698;11.946;2022-08-06T13:05:39;25.00;41.90
13440;DHT22;6792;57.698;11.946;2022-08-06T13:08:09;25.20;41.70
13440;DHT22;6792;57.698;11.946;2022-08-06T13:10:47;25.30;41.40
13440;DHT22;6792;57.698;11.946;2022-08-06T13:13:19;25.50;41.30
13440;DHT22;6792;57.698;11.946;2022-08-06T13:16:03;25.70;41.20
13440;DHT22;6792;57.698;11.946;2022-08-06T13:18:33;25.80;40.90
13440;DHT22;6792;57.698;11.946;2022-08-06T13:21:03;25.80;40.50
13440;DHT22;6792;57.698;11.946;2022-08-06T13:23:35;25.80;40.70
13440;DHT22;6792;57.698;11.946;2022-08-06T13:26:15;26.00;40.60
13440;DHT22;6792;57.698;11.946;2022-08-06T13:29:06;26.50;40.10
13440;DHT22;6792;57.698;11.946;2022-08-06T13:31:37;26.60;39.50
13440;DHT22;6792;57.698;11.946;2022-08-06T13:34:10;26.70;40.10
13440;DHT22;6792;57.698;11.946;2022-08-06T13:36:42;27.20;39.70
13440;DHT22;6792;57.698;11.946;2022-08-06T13:39:24;27.70;39.80
13440;DHT22;6792;57.698;11.946;2022-08-06T13:42:05;27.90;38.00
13440;DHT22;6792;57.698;11.946;2022-08-06T13:44:36;27.80;37.70
13440;DHT22;6792;57.698;11.946;2022-08-06T13:47:11;27.80;37.70
13440;DHT22;6792;57.698;11.946;2022-08-06T13:49:42;27.70;37.30
13440;DHT22;6792;57.698;11.946;2022-08-06T13:52:13;27.50;37.70
13440;DHT22;6792;57.698;11.946;2022-08-06T13:54:44;27.40;38.20
13440;DHT22;6792;57.698;11.946;2022-08-06T13:57:13;27.40;38.10
13440;DHT22;6792;57.698;11.946;2022-08-06T13:59:45;27.70;39.10
13440;DHT22;6792;57.698;11.946;2022-08-06T14:02:33;29.10;39.90
13440;DHT22;6792;57.698;11.946;2022-08-06T14:05:02;30.40;38.00
13440;DHT22;6792;57.698;11.946;2022-08-06T14:07:34;31.20;35.80
13440;DHT22;6792;57.698;11.946;2022-08-06T14:10:04;31.60;35.00
13440;DHT22;6792;57.698;11.946;2022-08-06T14:12:33;31.50;34.00
13440;DHT22;6792;57.698;11.946;2022-08-06T14:15:04;31.10;33.80
13440;DHT22;6792;57.698;11.946;2022-08-06T14:17:33;30.60;33.30
13440;DHT22;6792;57.698;11.946;2022-08-06T14:20:02;30.30;34.20
13440;DHT22;6792;57.698;11.946;2022-08-06T14:22:32;29.90;34.40
13440;DHT22;6792;57.698;11.946;2022-08-06T14:25:01;29.60;34.10
13440;DHT22;6792;57.698;11.946;2022-08-06T14:27:30;29.30;35.00
13440;DHT22;6792;57.698;11.946;2022-08-06T14:29:59;28.90;35.20
13440;DHT22;6792;57.698;11.946;2022-08-06T14:32:29;28.70;35.40
13440;DHT22;6792;57.698;11.946;2022-08-06T14:34:58;28.40;35.70
13440;DHT22;6792;57.698;11.946;2022-08-06T14:37:29;28.20;36.00
13440;DHT22;6792;57.698;11.946;2022-08-06T14:39:58;28.00;36.20
13440;DHT22;6792;57.698;11.946;2022-08-06T14:42:27;27.80;36.50
13440;DHT22;6792;57.698;11.946;2022-08-06T14:45:14;27.60;36.30
13440;DHT22;6792;57.698;11.946;2022-08-06T14:47:43;27.40;36.60
13440;DHT22;6792;57.698;11.946;2022-08-06T14:50:14;27.20;37.30
13440;DHT22;6792;57.698;11.946;2022-08-06T14:52:45;27.10;37.40
13440;DHT22;6792;57.698;11.946;2022-08-06T14:55:23;27.00;37.50
13440;DHT22;6792;57.698;11.946;2022-08-06T14:57:52;26.90;37.80
13440;DHT22;6792;57.698;11.946;2022-08-06T15:00:24;26.80;37.90
13440;DHT22;6792;57.698;11.946;2022-08-06T15:03:01;26.60;37.40
13440;DHT22;6792;57.698;11.946;2022-08-06T15:05:37;26.50;37.40
13440;DHT22;6792;57.698;11.946;2022-08-06T15:08:08;26.40;37.80
13440;DHT22;6792;57.698;11.946;2022-08-06T15:10:55;26.30;38.50
13440;DHT22;6792;57.698;11.946;2022-08-06T15:13:27;26.20;38.70
13440;DHT22;6792;57.698;11.946;2022-08-06T15:15:59;26.10;38.80
13440;DHT22;6792;57.698;11.946;2022-08-06T15:18:39;26.00;38.50
13440;DHT22;6792;57.698;11.946;2022-08-06T15:21:18;25.90;39.10
13440;DHT22;6792;57.698;11.946;2022-08-06T15:23:50;25.80;38.60
13440;DHT22;6792;57.698;11.946;2022-08-06T15:26:24;24.20;37.80
13440;DHT22;6792;57.698;11.946;2022-08-06T15:29:06;25.70;38.80
13440;DHT22;6792;57.698;11.946;2022-08-06T15:31:35;25.70;38.70
13440;DHT22;6792;57.698;11.946;2022-08-06T15:34:04;25.60;39.20
13440;DHT22;6792;57.698;11.946;2022-08-06T15:36:41;25.50;39.30
13440;DHT22;6792;57.698;11.946;2022-08-06T15:39:15;25.50;38.90
13440;DHT22;6792;57.698;11.946;2022-08-06T15:41:55;25.50;38.90
13440;DHT22;6792;57.698;11.946;2022-08-06T15:47:06;25.30;38.80
13440;DHT22;6792;57.698;11.946;2022-08-06T15:52:24;25.20;38.90
13440;DHT22;6792;57.698;11.946;2022-08-06T15:54:53;25.00;38.90
13440;DHT22;6792;57.698;11.946;2022-08-06T16:00:21;25.00;39.10
13440;DHT22;6792;57.698;11.946;2022-08-06T16:02:55;25.00;39.70
13440;DHT22;6792;57.698;11.946;2022-08-06T16:05:31;24.90;39.20
13440;DHT22;6792;57.698;11.946;2022-08-06T16:08:07;24.80;39.20
13440;DHT22;6792;57.698;11.946;2022-08-06T16:10:50;24.80;39.90
13440;DHT22;6792;57.698;11.946;2022-08-06T16:16:31;24.70;39.60
13440;DHT22;6792;57.698;11.946;2022-08-06T16:19:05;24.60;39.60
13440;DHT22;6792;57.698;11.946;2022-08-06T16:24:57;24.70;40.10
13440;DHT22;6792;57.698;11.946;2022-08-06T16:27:26;24.70;40.60
13440;DHT22;6792;57.698;11.946;2022-08-06T16:32:45;24.60;40.40
13440;DHT22;6792;57.698;11.946;2022-08-06T16:35:23;24.60;40.00
13440;DHT22;6792;57.698;11.946;2022-08-06T16:40:44;24.50;40.10
13440;DHT22;6792;57.698;11.946;2022-08-06T16:43:17;24.50;40.30
13440;DHT22;6792;57.698;11.946;2022-08-06T16:46:03;23.70;40.00
13440;DHT22;6792;57.698;11.946;2022-08-06T16:48:41;24.40;40.50
13440;DHT22;6792;57.698;11.946;2022-08-06T16:51:12;24.40;40.50
13440;DHT22;6792;57.698;11.946;2022-08-06T16:53:49;24.40;40.60